CheckWX is a tool to help pilots better visualize weather data.  It is not intended as a substitute for an official pre-flight weather briefing.

13:57:11 UTC

2G9 METAR
Somerset County Airport
Somerset, Pennsylvania, USA
Current

22 mins ago

K2G9 261335Z AUTO 16009KT 10SM BKN029 BKN035 OVC041 13/12 A2947 RMK AO2
Observed
Apr-26 @ 13:35 UTC
Wind
  • 160° at 9 KTS
Visibility
10 SM
Flight Rules
MVFR
Cloud Levels
  • Broken at 2,900' AGL
  • Broken at 3,500' AGL
  • Overcast at 4,100' AGL
Temperature
13°C / 55°F
Dewpoint
12°C / 54°F
Humidity
94%
Altimeter
29.47" Hg
Pressure
998.02 hPa
Previous

42 mins ago

K2G9 261315Z AUTO 16011G16KT 10SM -RA BKN029 OVC034 13/12 A2948 RMK AO2
Observed
Apr-26 @ 13:15 UTC
Wind
  • 160° at 11 KTS
  • Gusting to 16 KTS
Visibility
10 SM
Flight Rules
MVFR
Conditions
Light Rain
Cloud Levels
  • Broken at 2,900' AGL
  • Overcast at 3,400' AGL
Temperature
13°C / 55°F
Dewpoint
12°C / 54°F
Humidity
94%
Altimeter
29.48" Hg
Pressure
998.32 hPa
Previous

1 hour ago

K2G9 261255Z AUTO 16010G16KT 10SM SCT010 SCT021 OVC029 12/12 A2949 RMK AO2
Observed
Apr-26 @ 12:55 UTC
Wind
  • 160° at 10 KTS
  • Gusting to 16 KTS
Visibility
10 SM
Flight Rules
MVFR
Cloud Levels
  • Scattered at 1,000' AGL
  • Scattered at 2,100' AGL
  • Overcast at 2,900' AGL
Temperature
12°C / 54°F
Dewpoint
12°C / 54°F
Humidity
100%
Altimeter
29.49" Hg
Pressure
998.62 hPa